createdAt,value
2022-12-18T00:02:53.533Z,-4.18
2022-12-18T00:05:56.367Z,-4.33
2022-12-18T00:09:00.919Z,-4.44
2022-12-18T00:15:22.089Z,-4.62
2022-12-18T00:18:24.814Z,-4.67
2022-12-18T00:21:31.424Z,-4.47
2022-12-18T00:24:34.189Z,-4.38
2022-12-18T00:27:36.865Z,-4.16
2022-12-18T00:30:41.153Z,-3.76
2022-12-18T00:33:45.175Z,-3.64
2022-12-18T00:36:48.987Z,-3.63
2022-12-18T00:39:53.096Z,-3.58
2022-12-18T00:42:58.764Z,-3.49
2022-12-18T00:46:04.244Z,-3.51
2022-12-18T00:49:08.299Z,-3.59
2022-12-18T00:52:11.090Z,-3.62
2022-12-18T00:55:14.128Z,-3.65
2022-12-18T00:58:17.845Z,-3.73
2022-12-18T01:01:20.990Z,-3.70
2022-12-18T01:04:27.132Z,-3.74
2022-12-18T01:07:33.184Z,-3.66
2022-12-18T01:10:35.930Z,-3.69
2022-12-18T01:13:39.652Z,-3.64
2022-12-18T01:16:43.084Z,-3.59
2022-12-18T01:19:46.559Z,-3.66
2022-12-18T01:22:49.222Z,-3.65
2022-12-18T01:25:51.896Z,-3.66
2022-12-18T01:28:56.659Z,-3.61
2022-12-18T01:31:59.404Z,-3.69
2022-12-18T01:35:02.160Z,-3.72
2022-12-18T01:38:08.082Z,-3.74
2022-12-18T01:41:11.712Z,-3.91
2022-12-18T01:44:48.865Z,-3.99
2022-12-18T01:48:01.087Z,-3.98
2022-12-18T01:51:04.066Z,-4.03
2022-12-18T01:54:06.685Z,-4.16
2022-12-18T01:57:09.566Z,-4.26
2022-12-18T02:00:16.316Z,-4.41
2022-12-18T02:03:19.048Z,-4.65
2022-12-18T02:06:32.108Z,-4.65
2022-12-18T02:09:46.769Z,-4.76
2022-12-18T02:13:14.914Z,-4.85
2022-12-18T02:16:46.435Z,-5.08
2022-12-18T02:20:07.940Z,-5.17
2022-12-18T02:23:41.282Z,-5.29
2022-12-18T02:26:53.022Z,-5.21
2022-12-18T02:29:59.177Z,-5.26
2022-12-18T02:33:03.914Z,-5.30
2022-12-18T02:36:08.162Z,-5.46
2022-12-18T02:39:12.850Z,-5.55
2022-12-18T02:42:15.883Z,-5.73
2022-12-18T02:45:18.760Z,-5.76
2022-12-18T02:48:25.329Z,-5.80
2022-12-18T02:51:39.859Z,-5.83
2022-12-18T02:55:04.342Z,-5.93
2022-12-18T02:58:36.230Z,-6.02
2022-12-18T03:01:51.557Z,-6.06
2022-12-18T03:05:17.690Z,-6.24
2022-12-18T03:08:24.451Z,-6.22
2022-12-18T03:11:58.984Z,-6.27
2022-12-18T03:15:16.009Z,-6.38
2022-12-18T03:18:30.955Z,-6.47
2022-12-18T03:21:56.001Z,-6.59
2022-12-18T03:24:59.702Z,-6.60
2022-12-18T03:28:03.648Z,-6.62
2022-12-18T03:31:09.941Z,-6.72
2022-12-18T03:34:17.767Z,-6.75
2022-12-18T03:37:20.617Z,-6.82
2022-12-18T03:40:30.877Z,-6.84
2022-12-18T03:43:43.666Z,-6.87
2022-12-18T03:47:06.015Z,-6.93
2022-12-18T03:50:21.473Z,-6.99
2022-12-18T03:53:56.911Z,-7.01
2022-12-18T03:57:15.259Z,-6.99
2022-12-18T04:00:19.515Z,-7.05
2022-12-18T04:03:26.238Z,-7.21
2022-12-18T04:06:30.759Z,-7.24
2022-12-18T04:09:34.390Z,-7.26
2022-12-18T04:12:38.961Z,-7.31
2022-12-18T04:15:44.765Z,-7.34
2022-12-18T04:18:47.616Z,-7.63
2022-12-18T04:21:50.496Z,-7.50
2022-12-18T04:24:53.149Z,-7.45
2022-12-18T04:27:58.883Z,-7.48
2022-12-18T04:31:01.563Z,-7.53
2022-12-18T04:34:07.361Z,-7.57
2022-12-18T04:37:10.046Z,-7.57
2022-12-18T04:40:13.551Z,-7.60
2022-12-18T04:43:16.218Z,-7.59
2022-12-18T04:46:18.898Z,-7.66
2022-12-18T04:49:21.535Z,-7.73
2022-12-18T04:52:25.022Z,-7.75
2022-12-18T04:55:28.635Z,-7.82
2022-12-18T04:58:31.606Z,-7.89
2022-12-18T05:01:35.120Z,-7.96
2022-12-18T05:04:38.000Z,-7.98
2022-12-18T05:07:40.767Z,-8.05
2022-12-18T05:10:44.167Z,-8.02
2022-12-18T05:13:46.879Z,-8.00
2022-12-18T05:16:49.560Z,-7.96
2022-12-18T05:19:55.446Z,-7.94
2022-12-18T05:22:58.322Z,-7.99
2022-12-18T05:26:03.065Z,-8.05
2022-12-18T05:29:06.286Z,-7.99
2022-12-18T05:32:09.350Z,-8.01
2022-12-18T05:35:12.467Z,-8.06
2022-12-18T05:38:15.110Z,-8.31
2022-12-18T05:41:17.785Z,-8.22
2022-12-18T05:44:20.459Z,-8.21
2022-12-18T05:47:23.364Z,-8.23
2022-12-18T05:50:26.099Z,-8.31
2022-12-18T05:53:28.862Z,-8.33
2022-12-18T05:56:31.555Z,-8.42
2022-12-18T05:59:34.648Z,-8.45
2022-12-18T06:02:37.596Z,-8.42
2022-12-18T06:05:44.757Z,-8.48
2022-12-18T06:08:47.916Z,-8.47
2022-12-18T06:11:53.061Z,-8.43
2022-12-18T06:14:55.795Z,-8.45
2022-12-18T06:17:58.625Z,-8.42
2022-12-18T06:21:01.744Z,-8.43
2022-12-18T06:24:05.046Z,-8.44
2022-12-18T06:27:07.649Z,-8.46
2022-12-18T06:30:11.639Z,-8.50
2022-12-18T06:33:14.490Z,-8.44
2022-12-18T06:36:17.847Z,-8.57
2022-12-18T06:39:20.654Z,-8.54
2022-12-18T06:42:23.638Z,-8.52
2022-12-18T06:45:26.606Z,-8.48
2022-12-18T06:48:30.022Z,-8.45
2022-12-18T06:51:33.055Z,-8.43
2022-12-18T06:54:35.776Z,-8.44
2022-12-18T06:57:39.099Z,-8.53
2022-12-18T07:00:45.183Z,-8.55
2022-12-18T07:03:52.503Z,-8.47
2022-12-18T07:06:55.541Z,-8.44
2022-12-18T07:09:58.271Z,-8.42
2022-12-18T07:13:02.069Z,-8.29
2022-12-18T07:16:15.948Z,-8.18
2022-12-18T07:19:20.053Z,-8.11
2022-12-18T07:22:23.295Z,-7.98
2022-12-18T07:25:27.018Z,-7.94
2022-12-18T07:28:30.113Z,-7.89
2022-12-18T07:31:33.003Z,-7.81
2022-12-18T07:34:39.048Z,-7.71
2022-12-18T07:37:41.772Z,-7.66
2022-12-18T07:40:47.288Z,-7.57
2022-12-18T07:43:50.202Z,-7.56
2022-12-18T07:46:52.930Z,-7.38
2022-12-18T07:49:55.772Z,-7.24
2022-12-18T07:52:58.828Z,-7.05
2022-12-18T07:56:26.607Z,-6.91
2022-12-18T07:59:29.374Z,-6.77
2022-12-18T08:02:33.084Z,-6.60
2022-12-18T08:05:35.817Z,-6.39
2022-12-18T08:08:38.751Z,-6.19
2022-12-18T08:11:41.427Z,-6.01
2022-12-18T08:14:44.056Z,-5.71
2022-12-18T08:17:46.894Z,-5.54
2022-12-18T08:20:49.716Z,-5.24
2022-12-18T08:23:54.296Z,-4.88
2022-12-18T08:27:21.234Z,-4.68
2022-12-18T08:30:21.376Z,-4.54
2022-12-18T08:33:24.888Z,-4.29
2022-12-18T08:36:28.170Z,-4.17
2022-12-18T08:39:31.055Z,-3.97
2022-12-18T08:42:52.485Z,-3.78
2022-12-18T08:45:55.317Z,-3.61
2022-12-18T08:48:58.127Z,-3.45
2022-12-18T08:52:01.206Z,-3.33
2022-12-18T08:55:04.234Z,-3.14
2022-12-18T08:58:06.924Z,-3.03
2022-12-18T09:01:13.392Z,-2.91
2022-12-18T09:04:16.662Z,-2.69
2022-12-18T09:07:19.362Z,-2.57
2022-12-18T09:10:22.575Z,-2.48
2022-12-18T09:13:25.775Z,-2.31
2022-12-18T09:16:32.266Z,-2.11
2022-12-18T09:19:35.611Z,-1.88
2022-12-18T09:22:38.304Z,-1.76
2022-12-18T09:25:41.943Z,-1.69
2022-12-18T09:28:45.306Z,-1.42
2022-12-18T09:31:51.092Z,-1.28
2022-12-18T09:34:56.803Z,-1.07
2022-12-18T09:37:59.656Z,-0.72
2022-12-18T09:41:23.791Z,-0.53
2022-12-18T09:44:47.612Z,-0.47
2022-12-18T09:47:51.897Z,-0.62
2022-12-18T09:50:58.893Z,-0.42
2022-12-18T09:54:09.160Z,-0.09
2022-12-18T09:57:20.262Z,0.24
2022-12-18T10:00:25.203Z,0.74
2022-12-18T10:03:30.820Z,1.04
2022-12-18T10:06:38.407Z,0.83
2022-12-18T10:09:59.915Z,0.75
2022-12-18T10:13:06.244Z,0.78
2022-12-18T10:16:23.909Z,1.00
2022-12-18T10:19:52.918Z,0.05
2022-12-18T10:23:09.794Z,0.45
2022-12-18T10:26:15.891Z,0.52
2022-12-18T10:29:19.653Z,1.62
2022-12-18T10:32:31.033Z,1.37
2022-12-18T10:35:33.865Z,2.44
2022-12-18T10:38:39.533Z,2.86
2022-12-18T10:41:43.099Z,3.14
2022-12-18T10:45:07.552Z,3.24
2022-12-18T10:48:21.292Z,2.43
2022-12-18T10:51:34.666Z,2.08
2022-12-18T10:54:37.658Z,2.01
2022-12-18T10:57:42.777Z,2.09
2022-12-18T11:00:45.451Z,1.99
2022-12-18T11:04:02.609Z,3.35
2022-12-18T11:07:08.068Z,3.05
2022-12-18T11:10:20.417Z,3.87
2022-12-18T11:13:25.461Z,4.43
2022-12-18T11:16:32.040Z,3.73
2022-12-18T11:19:39.856Z,4.24
2022-12-18T11:22:42.548Z,4.46
2022-12-18T11:26:03.489Z,4.69
2022-12-18T11:29:12.218Z,4.91
2022-12-18T11:32:40.766Z,4.99
2022-12-18T11:36:03.990Z,4.02
2022-12-18T11:39:36.405Z,4.98
2022-12-18T11:42:46.189Z,4.51
2022-12-18T11:45:54.962Z,4.14
2022-12-18T11:49:29.244Z,5.03
2022-12-18T11:52:39.823Z,4.59
2022-12-18T11:55:51.939Z,4.83
2022-12-18T11:59:10.457Z,5.14
2022-12-18T12:02:19.273Z,5.76
2022-12-18T12:05:44.000Z,5.05
2022-12-18T12:09:05.453Z,4.58
2022-12-18T12:12:32.204Z,3.82
2022-12-18T12:15:48.334Z,4.45
2022-12-18T12:19:35.696Z,4.91
2022-12-18T12:22:54.812Z,5.03
2022-12-18T12:26:03.539Z,5.53
2022-12-18T12:29:20.834Z,4.20
2022-12-18T12:32:43.101Z,3.17
2022-12-18T12:36:26.545Z,4.23
2022-12-18T12:39:35.841Z,4.52
2022-12-18T12:43:09.456Z,4.78
2022-12-18T12:46:15.446Z,4.50
2022-12-18T12:49:23.621Z,4.48
2022-12-18T12:52:33.992Z,5.55
2022-12-18T12:55:40.566Z,6.08
2022-12-18T12:58:48.311Z,6.25
2022-12-18T13:02:06.708Z,6.29
2022-12-18T13:05:21.454Z,5.69
2022-12-18T13:12:23.331Z,5.76
2022-12-18T13:13:43.832Z,5.65
2022-12-18T13:15:40.001Z,5.78
2022-12-18T13:18:53.260Z,5.42
2022-12-18T13:21:57.777Z,4.85
2022-12-18T13:25:00.760Z,4.58
2022-12-18T13:28:10.461Z,3.98
2022-12-18T13:31:30.354Z,4.18
2022-12-18T13:34:33.807Z,3.88
2022-12-18T13:37:45.119Z,3.63
2022-12-18T13:40:50.727Z,3.22
2022-12-18T13:43:55.621Z,2.98
2022-12-18T13:46:58.736Z,2.80
2022-12-18T13:50:03.363Z,2.57
2022-12-18T13:53:06.630Z,2.63
2022-12-18T13:56:09.505Z,2.42
2022-12-18T13:59:16.803Z,2.36
2022-12-18T14:02:24.042Z,2.39
2022-12-18T14:05:29.700Z,2.38
2022-12-18T14:08:41.818Z,2.32
2022-12-18T14:11:49.724Z,2.22
2022-12-18T14:14:54.978Z,2.21
2022-12-18T14:18:10.318Z,1.91
2022-12-18T14:21:39.075Z,1.72
2022-12-18T14:24:42.296Z,1.35
2022-12-18T14:27:51.440Z,0.99
2022-12-18T14:30:55.974Z,0.64
2022-12-18T14:33:58.743Z,0.37
2022-12-18T14:37:01.551Z,0.11
2022-12-18T14:40:11.082Z,-0.14
2022-12-18T14:43:15.154Z,-0.32
2022-12-18T14:46:40.277Z,-0.47
2022-12-18T14:49:44.589Z,-0.58
2022-12-18T14:52:47.288Z,-0.76
2022-12-18T14:55:50.364Z,-1.00
2022-12-18T14:58:56.630Z,-1.19
2022-12-18T15:02:05.910Z,-1.38
2022-12-18T15:05:15.251Z,-1.53
2022-12-18T15:08:51.345Z,-1.65
2022-12-18T15:11:59.280Z,-1.79
2022-12-18T15:15:02.496Z,-2.05
2022-12-18T15:18:13.768Z,-2.25
2022-12-18T15:21:19.933Z,-2.33
2022-12-18T15:24:28.853Z,-2.45
2022-12-18T15:27:35.995Z,-2.70
2022-12-18T15:30:38.724Z,-2.79
2022-12-18T15:34:02.196Z,-2.83
2022-12-18T15:37:05.084Z,-2.95
2022-12-18T15:40:09.989Z,-3.10
2022-12-18T15:43:31.264Z,-3.14
2022-12-18T15:46:34.243Z,-3.45
2022-12-18T15:49:37.297Z,-3.49
2022-12-18T15:52:44.868Z,-3.54
2022-12-18T15:56:06.494Z,-3.63
2022-12-18T15:59:15.014Z,-3.70
2022-12-18T16:02:19.750Z,-3.72
2022-12-18T16:05:24.460Z,-3.87
2022-12-18T16:08:30.334Z,-3.98
2022-12-18T16:11:39.619Z,-4.23
2022-12-18T16:14:43.115Z,-4.30
2022-12-18T16:17:49.102Z,-4.45
2022-12-18T16:20:52.798Z,-4.43
2022-12-18T16:23:55.919Z,-4.44
2022-12-18T16:27:04.955Z,-4.53
2022-12-18T16:30:10.838Z,-4.51
2022-12-18T16:33:13.636Z,-4.60
2022-12-18T16:36:16.662Z,-4.86
2022-12-18T16:39:19.442Z,-4.86
2022-12-18T16:42:22.531Z,-4.91
2022-12-18T16:45:34.333Z,-4.92
2022-12-18T16:48:37.213Z,-4.97
2022-12-18T16:51:40.593Z,-5.03
2022-12-18T16:54:43.557Z,-5.06
2022-12-18T16:57:46.584Z,-5.15
2022-12-18T17:00:49.728Z,-5.16
2022-12-18T17:03:55.527Z,-5.24
2022-12-18T17:06:59.219Z,-5.30
2022-12-18T17:10:01.978Z,-5.33
2022-12-18T17:13:06.060Z,-5.35
2022-12-18T17:16:10.200Z,-5.43
2022-12-18T17:19:17.419Z,-5.45
2022-12-18T17:22:23.603Z,-5.56
2022-12-18T17:25:26.655Z,-5.64
2022-12-18T17:28:29.937Z,-5.72
2022-12-18T17:31:36.036Z,-5.73
2022-12-18T17:34:41.972Z,-5.72
2022-12-18T17:37:44.673Z,-5.76
2022-12-18T17:40:48.342Z,-5.78
2022-12-18T17:43:55.476Z,-5.88
2022-12-18T17:46:58.909Z,-5.94
2022-12-18T17:50:01.782Z,-5.91
2022-12-18T17:53:04.788Z,-5.99
2022-12-18T17:56:09.585Z,-6.09
2022-12-18T17:59:14.834Z,-6.09
2022-12-18T18:02:17.986Z,-6.22
2022-12-18T18:05:21.454Z,-6.26
2022-12-18T18:08:24.994Z,-6.24
2022-12-18T18:11:46.834Z,-6.30
2022-12-18T18:14:52.942Z,-6.45
2022-12-18T18:17:55.972Z,-6.44
2022-12-18T18:20:58.855Z,-6.49
2022-12-18T18:24:03.470Z,-6.58
2022-12-18T18:27:06.289Z,-6.60
2022-12-18T18:30:10.014Z,-6.62
2022-12-18T18:33:13.085Z,-6.74
2022-12-18T18:36:16.098Z,-6.79
2022-12-18T18:39:19.460Z,-6.80
2022-12-18T18:42:22.438Z,-6.75
2022-12-18T18:45:25.643Z,-6.76
2022-12-18T18:48:31.076Z,-6.77
2022-12-18T18:51:35.724Z,-6.79
2022-12-18T18:54:51.914Z,-6.81
2022-12-18T18:58:01.743Z,-6.80
2022-12-18T19:01:13.139Z,-6.95
2022-12-18T19:04:16.339Z,-6.96
2022-12-18T19:07:30.690Z,-7.00
2022-12-18T19:10:43.656Z,-7.15
2022-12-18T19:13:47.371Z,-7.17
2022-12-18T19:16:50.410Z,-7.15
2022-12-18T19:19:53.801Z,-7.18
2022-12-18T19:22:56.802Z,-7.22
2022-12-18T19:26:16.964Z,-7.20
2022-12-18T19:29:24.249Z,-7.36
2022-12-18T19:32:27.250Z,-7.39
2022-12-18T19:35:30.672Z,-7.42
2022-12-18T19:38:33.583Z,-7.44
2022-12-18T19:41:36.659Z,-7.41
2022-12-18T19:44:40.379Z,-7.40
2022-12-18T19:47:43.644Z,-7.35
2022-12-18T19:50:46.703Z,-7.41
2022-12-18T19:53:54.988Z,-7.49
2022-12-18T19:57:02.977Z,-7.46
2022-12-18T20:00:06.999Z,-7.43
2022-12-18T20:03:21.227Z,-7.37
2022-12-18T20:06:32.983Z,-7.33
2022-12-18T20:09:37.126Z,-7.30
2022-12-18T20:12:39.974Z,-7.30
2022-12-18T20:15:45.314Z,-7.44
2022-12-18T20:18:50.318Z,-7.39
2022-12-18T20:21:54.298Z,-7.35
2022-12-18T20:24:57.116Z,-7.35
2022-12-18T20:28:01.817Z,-7.39
2022-12-18T20:31:10.533Z,-7.35
2022-12-18T20:34:17.921Z,-7.29
2022-12-18T20:37:24.439Z,-7.27
2022-12-18T20:40:27.780Z,-7.29
2022-12-18T20:43:31.475Z,-7.33
2022-12-18T20:46:34.199Z,-7.33
2022-12-18T20:49:37.376Z,-7.33
2022-12-18T20:52:41.594Z,-7.32
2022-12-18T20:55:45.062Z,-7.30
2022-12-18T20:58:47.892Z,-7.28
2022-12-18T21:01:54.973Z,-7.29
2022-12-18T21:04:58.024Z,-7.24
2022-12-18T21:08:00.816Z,-7.19
2022-12-18T21:11:36.042Z,-7.17
2022-12-18T21:14:39.219Z,-7.22
2022-12-18T21:17:45.078Z,-7.34
2022-12-18T21:20:48.201Z,-7.25
2022-12-18T21:23:51.381Z,-7.26
2022-12-18T21:26:54.712Z,-7.28
2022-12-18T21:29:58.777Z,-7.26
2022-12-18T21:33:01.644Z,-7.34
2022-12-18T21:36:07.416Z,-7.43
2022-12-18T21:39:10.385Z,-7.44
2022-12-18T21:42:31.904Z,-7.42
2022-12-18T21:45:34.771Z,-7.43
2022-12-18T21:48:40.765Z,-7.46
2022-12-18T21:51:44.083Z,-7.42
2022-12-18T21:54:46.789Z,-7.43
2022-12-18T21:57:50.452Z,-7.56
2022-12-18T22:00:53.307Z,-7.62
2022-12-18T22:03:55.993Z,-7.58
2022-12-18T22:07:02.165Z,-7.67
2022-12-18T22:10:05.080Z,-7.66
2022-12-18T22:13:08.448Z,-7.76
2022-12-18T22:16:11.272Z,-7.70
2022-12-18T22:19:14.174Z,-7.70
2022-12-18T22:22:17.739Z,-7.77
2022-12-18T22:25:20.426Z,-7.83
2022-12-18T22:28:41.815Z,-7.80
2022-12-18T22:31:44.698Z,-7.81
2022-12-18T22:34:47.535Z,-7.84
2022-12-18T22:37:50.268Z,-7.89
2022-12-18T22:40:53.271Z,-7.85
2022-12-18T22:43:56.196Z,-7.87
2022-12-18T22:47:05.629Z,-7.99
2022-12-18T22:50:12.769Z,-8.01
2022-12-18T22:53:15.463Z,-8.01
2022-12-18T22:56:21.214Z,-8.03
2022-12-18T22:59:25.134Z,-8.09
2022-12-18T23:02:27.845Z,-8.16
2022-12-18T23:05:31.297Z,-8.20
2022-12-18T23:08:34.878Z,-8.22
2022-12-18T23:11:37.591Z,-8.23
2022-12-18T23:14:40.280Z,-8.16
2022-12-18T23:17:43.096Z,-8.12
2022-12-18T23:20:45.860Z,-8.11
2022-12-18T23:23:48.852Z,-8.10
2022-12-18T23:26:51.687Z,-8.07
2022-12-18T23:29:54.425Z,-8.11
2022-12-18T23:32:59.482Z,-8.08
2022-12-18T23:36:03.405Z,-7.96
2022-12-18T23:39:06.352Z,-7.95
2022-12-18T23:42:09.096Z,-7.94
2022-12-18T23:45:16.612Z,-7.89
2022-12-18T23:48:21.467Z,-7.90
2022-12-18T23:51:25.839Z,-7.89
2022-12-18T23:54:33.212Z,-7.93
2022-12-18T23:57:36.406Z,-7.88
